Time;durP1;ratioP1;P1;durP2;ratioP2;P2;SDS_P1;SDS_P2;PMS_P1;PMS_P2;Temp;Humidity;BMP_temperature;BMP_pressure;BME280_temperature;BME280_humidity;BME280_pressure;Samples;Min_cycle;Max_cycle;Signal;HPM_P1;HPM_P2
2023/07/11 00:00:03;;;;;;;;;;;22.40;84.70;;;;;;5114568;28;20007;-63
2023/07/11 00:02:28;;;;;;;;;;;22.40;85.20;;;;;;5114388;28;19996;-62
2023/07/11 00:04:54;;;;;;;;;;;22.30;85.80;;;;;;5114449;28;20008;-64
2023/07/11 00:07:19;;;;;;;;;;;22.20;86.70;;;;;;5114581;28;20053;-63
2023/07/11 00:09:46;;;;;;;;;;;22.20;86.40;;;;;;5114183;28;20037;-64
2023/07/11 00:12:12;;;;;;;;;;;22.20;86.50;;;;;;5114388;28;20024;-64
2023/07/11 00:14:37;;;;;;;;;;;22.30;85.70;;;;;;5114379;28;20393;-63
2023/07/11 00:17:04;;;;;;;;;;;22.40;85.10;;;;;;5114239;28;19984;-64
2023/07/11 00:19:31;;;;;;;;;;;22.30;84.50;;;;;;5114434;28;19988;-62
2023/07/11 00:21:57;;;;;;;;;;;22.40;85.00;;;;;;5114337;28;20455;-63
2023/07/11 00:24:22;;;;;;;;;;;22.30;84.40;;;;;;5113880;28;20048;-62
2023/07/11 00:26:48;;;;;;;;;;;22.30;85.20;;;;;;5114327;28;20362;-64
2023/07/11 00:29:20;;;;;;;;;;;22.20;86.70;;;;;;5114163;28;20039;-63
2023/07/11 00:31:45;;;;;;;;;;;22.20;86.70;;;;;;5114088;28;20470;-64
2023/07/11 00:34:11;;;;;;;;;;;22.20;87.20;;;;;;5114123;28;19985;-63
2023/07/11 00:36:37;;;;;;;;;;;22.10;87.10;;;;;;5114105;28;19992;-62
2023/07/11 00:39:05;;;;;;;;;;;22.20;86.10;;;;;;5113863;28;19992;-64
2023/07/11 00:41:31;;;;;;;;;;;22.20;86.80;;;;;;5114005;28;20010;-63
2023/07/11 00:43:56;;;;;;;;;;;22.10;87.40;;;;;;5114073;28;20111;-64
2023/07/11 00:46:22;;;;;;;;;;;21.90;88.20;;;;;;5113977;28;20119;-63
2023/07/11 00:48:53;;;;;;;;;;;21.90;88.50;;;;;;5113904;28;20363;-64
2023/07/11 00:51:21;;;;;;;;;;;21.90;89.00;;;;;;5114030;28;20324;-64
2023/07/11 00:53:47;;;;;;;;;;;21.90;88.60;;;;;;5113704;28;20439;-64
2023/07/11 00:56:16;;;;;;;;;;;21.90;87.80;;;;;;5113732;28;19989;-62
2023/07/11 00:58:42;;;;;;;;;;;21.90;86.40;;;;;;5114653;28;19992;-63
2023/07/11 01:01:08;;;;;;;;;;;21.90;85.80;;;;;;5118283;28;19988;-63
2023/07/11 01:03:34;;;;;;;;;;;21.90;86.20;;;;;;5118076;28;20012;-63
2023/07/11 01:05:59;;;;;;;;;;;21.80;87.30;;;;;;5117998;28;20495;-62
2023/07/11 01:08:25;;;;;;;;;;;21.80;86.60;;;;;;5117681;28;19988;-65
2023/07/11 01:10:51;;;;;;;;;;;21.80;87.50;;;;;;5117753;28;19991;-63
2023/07/11 01:13:16;;;;;;;;;;;21.80;87.50;;;;;;5117857;28;19985;-62
2023/07/11 01:15:42;;;;;;;;;;;21.80;88.20;;;;;;5118147;28;19991;-63
2023/07/11 01:18:07;;;;;;;;;;;21.70;87.40;;;;;;5117617;28;20079;-63
2023/07/11 01:20:33;;;;;;;;;;;21.70;87.50;;;;;;5117596;28;20435;-64
2023/07/11 01:22:59;;;;;;;;;;;21.70;88.10;;;;;;5117404;28;20033;-65
2023/07/11 01:25:24;;;;;;;;;;;21.70;88.50;;;;;;5117375;28;20363;-64
2023/07/11 01:27:50;;;;;;;;;;;21.60;88.40;;;;;;5117646;28;19985;-63
2023/07/11 01:30:18;;;;;;;;;;;21.60;87.70;;;;;;5117406;28;20385;-63
2023/07/11 01:32:44;;;;;;;;;;;21.60;87.20;;;;;;5117438;28;19992;-62
2023/07/11 01:35:10;;;;;;;;;;;21.50;86.70;;;;;;5117544;28;19985;-63
2023/07/11 01:37:35;;;;;;;;;;;21.60;87.40;;;;;;5117089;28;19985;-64
2023/07/11 01:40:01;;;;;;;;;;;21.60;87.10;;;;;;5117223;28;20443;-64
2023/07/11 01:42:27;;;;;;;;;;;21.50;87.50;;;;;;5117091;28;19985;-62
2023/07/11 01:44:52;;;;;;;;;;;21.50;88.40;;;;;;5116974;28;20013;-64
2023/07/11 01:47:18;;;;;;;;;;;21.50;89.20;;;;;;5116996;28;20020;-63
2023/07/11 01:49:44;;;;;;;;;;;21.40;89.70;;;;;;5117237;28;19988;-63
2023/07/11 01:52:20;;;;;;;;;;;21.30;89.70;;;;;;5116846;28;20072;-64
2023/07/11 01:54:46;;;;;;;;;;;21.30;90.00;;;;;;5116945;28;20037;-64
2023/07/11 01:57:12;;;;;;;;;;;21.30;90.20;;;;;;5116733;28;20001;-63
2023/07/11 01:59:38;;;;;;;;;;;21.20;90.50;;;;;;5117179;28;20403;-63
2023/07/11 02:02:03;;;;;;;;;;;21.20;90.50;;;;;;5116833;28;19985;-65
2023/07/11 02:04:29;;;;;;;;;;;21.10;90.70;;;;;;5116575;28;20012;-62
2023/07/11 02:06:55;;;;;;;;;;;21.10;90.70;;;;;;5116573;28;20035;-63
2023/07/11 02:09:21;;;;;;;;;;;21.10;90.80;;;;;;5116786;28;19989;-64
2023/07/11 02:11:47;;;;;;;;;;;21.00;90.90;;;;;;5116539;28;19992;-62
2023/07/11 02:14:14;;;;;;;;;;;21.00;91.10;;;;;;5116644;28;20079;-64
2023/07/11 02:16:39;;;;;;;;;;;20.90;91.20;;;;;;5116546;28;19993;-63
2023/07/11 02:19:05;;;;;;;;;;;20.90;91.20;;;;;;5116344;28;20398;-64
2023/07/11 02:21:30;;;;;;;;;;;20.90;91.20;;;;;;5116536;28;19989;-63
2023/07/11 02:23:56;;;;;;;;;;;20.90;90.50;;;;;;5116385;28;20008;-64
2023/07/11 02:26:22;;;;;;;;;;;20.90;90.30;;;;;;5116353;28;19985;-62
2023/07/11 02:28:47;;;;;;;;;;;20.90;90.50;;;;;;5116233;28;20083;-64
2023/07/11 02:31:14;;;;;;;;;;;20.80;90.50;;;;;;5116246;28;20031;-62
2023/07/11 02:33:40;;;;;;;;;;;20.80;90.50;;;;;;5116109;28;20405;-65
2023/07/11 02:36:06;;;;;;;;;;;20.80;90.30;;;;;;5116037;28;20042;-63
2023/07/11 02:38:31;;;;;;;;;;;20.80;90.40;;;;;;5116247;28;19989;-64
2023/07/11 02:40:57;;;;;;;;;;;20.70;90.80;;;;;;5116055;28;19992;-63
2023/07/11 02:43:22;;;;;;;;;;;20.60;90.90;;;;;;5115917;28;19985;-63
2023/07/11 02:45:48;;;;;;;;;;;20.60;90.80;;;;;;5115782;28;19985;-64
2023/07/11 02:48:14;;;;;;;;;;;20.70;90.80;;;;;;5114934;28;19985;-64
2023/07/11 02:50:39;;;;;;;;;;;20.70;90.90;;;;;;5114827;28;20447;-63
2023/07/11 02:53:05;;;;;;;;;;;20.70;91.00;;;;;;5114767;28;20003;-64
2023/07/11 02:55:30;;;;;;;;;;;20.70;91.20;;;;;;5114923;28;19992;-64
2023/07/11 02:57:56;;;;;;;;;;;20.70;91.40;;;;;;5114776;28;20008;-61
2023/07/11 03:00:21;;;;;;;;;;;20.60;91.30;;;;;;5114639;28;19991;-63
2023/07/11 03:02:47;;;;;;;;;;;20.60;91.70;;;;;;5114616;28;19985;-63
2023/07/11 03:05:13;;;;;;;;;;;20.60;91.90;;;;;;5114440;28;20111;-63
2023/07/11 03:07:39;;;;;;;;;;;20.60;92.10;;;;;;5114572;28;19992;-63
2023/07/11 03:10:05;;;;;;;;;;;20.50;92.00;;;;;;5114707;28;19985;-64
2023/07/11 03:12:30;;;;;;;;;;;20.50;92.10;;;;;;5114542;28;19991;-64
2023/07/11 03:14:56;;;;;;;;;;;20.50;91.40;;;;;;5114496;28;20400;-63
2023/07/11 03:17:21;;;;;;;;;;;20.50;91.90;;;;;;5114333;28;20046;-64
2023/07/11 03:19:47;;;;;;;;;;;20.60;92.10;;;;;;5114407;28;19988;-64
2023/07/11 03:22:12;;;;;;;;;;;20.50;91.70;;;;;;5113708;28;19984;-65
2023/07/11 03:24:38;;;;;;;;;;;20.50;91.30;;;;;;5114231;28;20009;-64
2023/07/11 03:27:03;;;;;;;;;;;20.40;91.20;;;;;;5114387;28;20465;-64
2023/07/11 03:29:29;;;;;;;;;;;20.40;91.10;;;;;;5114276;28;20461;-63
2023/07/11 03:31:55;;;;;;;;;;;20.40;91.00;;;;;;5113932;28;20503;-63
2023/07/11 03:34:20;;;;;;;;;;;20.40;91.20;;;;;;5114246;28;20385;-64
2023/07/11 03:36:46;;;;;;;;;;;20.40;91.20;;;;;;5114182;28;19984;-63
2023/07/11 03:39:11;;;;;;;;;;;20.40;91.20;;;;;;5114089;28;20439;-64
2023/07/11 03:41:37;;;;;;;;;;;20.30;91.40;;;;;;5114100;28;20011;-63
2023/07/11 03:44:02;;;;;;;;;;;20.30;91.70;;;;;;5113975;28;20529;-63
2023/07/11 03:46:28;;;;;;;;;;;20.20;92.10;;;;;;5039296;28;2091781;-64
2023/07/11 03:48:54;;;;;;;;;;;20.20;92.50;;;;;;5114782;28;19992;-63
2023/07/11 03:51:20;;;;;;;;;;;20.30;92.20;;;;;;5114992;28;20431;-62
2023/07/11 03:53:46;;;;;;;;;;;20.30;92.60;;;;;;5114780;28;19992;-65
2023/07/11 03:56:12;;;;;;;;;;;20.40;92.50;;;;;;5114707;28;20015;-65
2023/07/11 03:58:38;;;;;;;;;;;20.40;92.70;;;;;;5114603;28;19985;-63
2023/07/11 04:01:03;;;;;;;;;;;20.40;93.30;;;;;;5114469;28;19988;-62
2023/07/11 04:03:29;;;;;;;;;;;20.40;93.50;;;;;;5114384;28;20451;-64
2023/07/11 04:05:56;;;;;;;;;;;20.40;93.80;;;;;;5114766;28;19999;-62
2023/07/11 04:08:22;;;;;;;;;;;20.50;93.10;;;;;;5114730;28;20024;-64
2023/07/11 04:10:47;;;;;;;;;;;20.50;92.50;;;;;;5114256;28;20035;-63
2023/07/11 04:13:13;;;;;;;;;;;20.60;92.00;;;;;;5114632;28;20515;-64
2023/07/11 04:15:38;;;;;;;;;;;20.60;91.60;;;;;;5114093;28;20457;-63
2023/07/11 04:18:04;;;;;;;;;;;20.70;91.80;;;;;;5114251;28;20389;-64
2023/07/11 04:20:29;;;;;;;;;;;20.70;91.60;;;;;;5114272;28;20400;-64
2023/07/11 04:22:55;;;;;;;;;;;20.80;91.40;;;;;;5114274;28;20050;-64
2023/07/11 04:25:21;;;;;;;;;;;20.80;91.80;;;;;;5114192;28;20035;-64
2023/07/11 04:27:46;;;;;;;;;;;20.80;91.10;;;;;;5114119;28;19989;-62
2023/07/11 04:30:12;;;;;;;;;;;20.80;90.90;;;;;;5113992;28;20026;-65
2023/07/11 04:32:37;;;;;;;;;;;20.80;91.40;;;;;;5113887;28;19985;-64
2023/07/11 04:35:04;;;;;;;;;;;20.90;91.80;;;;;;5113430;28;20042;-63
2023/07/11 04:37:30;;;;;;;;;;;20.90;91.00;;;;;;5114128;28;19989;-63
2023/07/11 04:39:55;;;;;;;;;;;20.90;90.80;;;;;;5114002;28;20469;-63
2023/07/11 04:42:21;;;;;;;;;;;20.90;90.40;;;;;;5113943;28;19985;-64
2023/07/11 04:44:46;;;;;;;;;;;21.00;91.00;;;;;;5114282;28;20035;-62
2023/07/11 04:47:12;;;;;;;;;;;21.10;91.00;;;;;;5114204;28;20035;-64
2023/07/11 04:49:38;;;;;;;;;;;21.10;91.00;;;;;;5113944;28;19989;-64
2023/07/11 04:52:03;;;;;;;;;;;21.20;91.50;;;;;;5114054;28;20393;-63
2023/07/11 04:54:29;;;;;;;;;;;21.20;91.30;;;;;;5114013;28;19985;-65
2023/07/11 04:56:58;;;;;;;;;;;21.20;91.70;;;;;;5113825;28;20416;-62
2023/07/11 04:59:24;;;;;;;;;;;21.30;91.40;;;;;;5113724;28;19989;-63
2023/07/11 05:01:49;;;;;;;;;;;21.40;91.40;;;;;;5113901;28;19984;-63
2023/07/11 05:04:15;;;;;;;;;;;21.50;91.10;;;;;;5113970;28;20065;-63
2023/07/11 05:06:41;;;;;;;;;;;21.40;91.30;;;;;;5114027;28;19996;-64
2023/07/11 05:09:07;;;;;;;;;;;21.50;90.60;;;;;;5113873;28;19985;-62
2023/07/11 05:11:32;;;;;;;;;;;21.50;89.90;;;;;;5113821;28;20435;-64
2023/07/11 05:13:58;;;;;;;;;;;21.50;87.90;;;;;;5113418;28;19992;-64
2023/07/11 05:16:25;;;;;;;;;;;21.60;89.50;;;;;;5113652;28;19988;-64
2023/07/11 05:18:51;;;;;;;;;;;21.80;88.90;;;;;;5113601;28;20084;-62
2023/07/11 05:21:17;;;;;;;;;;;21.80;87.60;;;;;;5113724;28;20083;-63
2023/07/11 05:23:43;;;;;;;;;;;21.80;85.30;;;;;;5113461;28;20008;-63
2023/07/11 05:26:09;;;;;;;;;;;21.90;86.20;;;;;;5113540;28;19988;-65
2023/07/11 05:28:35;;;;;;;;;;;22.00;87.20;;;;;;5113200;28;19990;-62
2023/07/11 05:31:01;;;;;;;;;;;22.10;87.20;;;;;;5113494;28;19985;-64
2023/07/11 05:33:27;;;;;;;;;;;22.10;85.00;;;;;;5113541;28;19992;-63
2023/07/11 05:36:05;;;;;;;;;;;22.20;85.40;;;;;;5113570;28;19985;-64
2023/07/11 05:38:32;;;;;;;;;;;22.30;85.70;;;;;;5113370;28;20461;-64
2023/07/11 05:40:58;;;;;;;;;;;22.40;84.50;;;;;;5113311;28;19988;-65
2023/07/11 05:43:23;;;;;;;;;;;22.50;85.40;;;;;;5113170;28;20038;-65
2023/07/11 05:45:49;;;;;;;;;;;22.50;84.10;;;;;;5115419;28;19989;-63
2023/07/11 05:48:14;;;;;;;;;;;22.60;84.80;;;;;;5117027;28;19995;-63
2023/07/11 05:50:40;;;;;;;;;;;22.70;83.60;;;;;;5116835;28;19991;-64
2023/07/11 05:53:05;;;;;;;;;;;22.80;83.10;;;;;;5117035;28;20059;-63
2023/07/11 05:55:31;;;;;;;;;;;22.80;83.30;;;;;;5116836;28;20071;-64
2023/07/11 05:57:56;;;;;;;;;;;22.80;82.40;;;;;;5116544;28;20474;-64
2023/07/11 06:00:22;;;;;;;;;;;22.90;83.00;;;;;;5116612;28;20332;-65
2023/07/11 06:02:47;;;;;;;;;;;23.00;82.50;;;;;;5116691;28;20382;-63
2023/07/11 06:05:13;;;;;;;;;;;23.20;81.50;;;;;;5116560;28;20009;-64
2023/07/11 06:07:39;;;;;;;;;;;23.30;80.00;;;;;;5116573;28;19989;-63
2023/07/11 06:10:05;;;;;;;;;;;23.30;80.50;;;;;;5116424;28;19991;-63
2023/07/11 06:12:30;;;;;;;;;;;23.50;80.70;;;;;;5116112;28;20324;-64
2023/07/11 06:14:56;;;;;;;;;;;23.60;80.80;;;;;;5116440;28;20037;-64
2023/07/11 06:17:21;;;;;;;;;;;23.80;79.70;;;;;;5116282;28;20431;-64
2023/07/11 06:19:47;;;;;;;;;;;23.90;80.30;;;;;;5116215;28;19992;-63
2023/07/11 06:22:13;;;;;;;;;;;24.00;79.90;;;;;;5116174;28;20084;-65
2023/07/11 06:24:39;;;;;;;;;;;24.10;79.60;;;;;;5116446;28;20019;-65
2023/07/11 06:27:04;;;;;;;;;;;24.20;78.00;;;;;;5116198;28;19989;-65
2023/07/11 06:29:30;;;;;;;;;;;24.30;78.10;;;;;;5116377;28;20023;-63
2023/07/11 06:31:56;;;;;;;;;;;24.40;78.30;;;;;;5116301;28;19992;-62
2023/07/11 06:34:22;;;;;;;;;;;24.60;79.50;;;;;;5116055;28;19999;-64
2023/07/11 06:36:47;;;;;;;;;;;24.90;78.20;;;;;;5115977;28;20435;-63
2023/07/11 06:39:13;;;;;;;;;;;25.00;77.70;;;;;;5115935;28;19984;-65
2023/07/11 06:41:38;;;;;;;;;;;25.10;71.30;;;;;;5115868;28;19988;-65
2023/07/11 06:44:06;;;;;;;;;;;25.30;73.00;;;;;;5115828;28;20016;-65
2023/07/11 06:46:34;;;;;;;;;;;25.50;71.60;;;;;;5115563;28;20572;-65
2023/07/11 06:48:59;;;;;;;;;;;25.60;71.20;;;;;;5115802;28;19984;-63
2023/07/11 06:51:26;;;;;;;;;;;25.70;71.20;;;;;;5115713;28;20358;-63
2023/07/11 06:53:51;;;;;;;;;;;25.90;69.70;;;;;;5115645;28;19985;-63
2023/07/11 06:56:17;;;;;;;;;;;26.00;68.40;;;;;;5114390;28;19989;-63
2023/07/11 06:58:42;;;;;;;;;;;26.20;68.40;;;;;;5115723;28;20066;-63
2023/07/11 07:01:09;;;;;;;;;;;26.30;68.40;;;;;;5115624;28;19985;-64
2023/07/11 07:03:34;;;;;;;;;;;26.50;67.70;;;;;;5115773;28;20062;-64
2023/07/11 07:06:02;;;;;;;;;;;26.60;66.10;;;;;;5115813;28;20373;-62
2023/07/11 07:08:27;;;;;;;;;;;26.70;66.80;;;;;;5115501;28;20477;-64
2023/07/11 07:10:53;;;;;;;;;;;26.80;63.80;;;;;;5115223;28;20016;-62
2023/07/11 07:13:20;;;;;;;;;;;27.00;66.50;;;;;;5115479;28;20049;-64
2023/07/11 07:15:46;;;;;;;;;;;27.10;62.80;;;;;;5115698;28;19993;-64
2023/07/11 07:18:12;;;;;;;;;;;27.20;64.70;;;;;;5115302;28;20035;-64
2023/07/11 07:20:37;;;;;;;;;;;27.30;64.90;;;;;;5115200;28;20032;-63
2023/07/11 07:23:04;;;;;;;;;;;27.40;63.30;;;;;;5115294;28;19984;-64
2023/07/11 07:25:30;;;;;;;;;;;27.50;66.10;;;;;;5114960;28;20053;-64
2023/07/11 07:27:57;;;;;;;;;;;27.60;64.40;;;;;;5115434;28;20083;-65
2023/07/11 07:30:23;;;;;;;;;;;27.90;63.80;;;;;;5115136;28;19985;-64
2023/07/11 07:32:49;;;;;;;;;;;27.90;63.70;;;;;;5115038;28;19991;-62
2023/07/11 07:35:14;;;;;;;;;;;28.00;62.70;;;;;;5115231;28;19989;-63
2023/07/11 07:37:40;;;;;;;;;;;28.10;61.80;;;;;;5114977;28;19985;-64
2023/07/11 07:40:06;;;;;;;;;;;28.30;62.80;;;;;;5096496;28;20466;-63
2023/07/11 07:42:31;;;;;;;;;;;28.70;62.90;;;;;;5114892;28;19996;-64
2023/07/11 07:44:57;;;;;;;;;;;30.00;60.40;;;;;;5114762;28;20008;-64
2023/07/11 07:47:22;;;;;;;;;;;31.60;57.30;;;;;;5114607;28;20025;-64
2023/07/11 07:49:48;;;;;;;;;;;33.00;55.90;;;;;;5114975;28;20014;-63
2023/07/11 07:52:14;;;;;;;;;;;34.20;52.40;;;;;;5114968;28;20009;-63
2023/07/11 07:54:39;;;;;;;;;;;35.10;52.00;;;;;;5114492;28;19988;-63
2023/07/11 07:57:05;;;;;;;;;;;35.70;50.90;;;;;;5096334;28;20061;-63
2023/07/11 07:59:31;;;;;;;;;;;36.00;50.80;;;;;;5114566;28;20096;-63
2023/07/11 08:01:57;;;;;;;;;;;36.20;48.10;;;;;;5114854;28;19989;-63
2023/07/11 08:04:23;;;;;;;;;;;36.40;46.40;;;;;;5114551;28;20019;-64
2023/07/11 08:06:48;;;;;;;;;;;37.00;46.80;;;;;;5114512;28;20011;-64
2023/07/11 08:09:14;;;;;;;;;;;37.50;48.40;;;;;;5114165;28;19984;-63
2023/07/11 08:11:42;;;;;;;;;;;37.30;43.80;;;;;;5114474;28;19988;-65
2023/07/11 08:14:07;;;;;;;;;;;36.70;46.30;;;;;;5114516;28;20027;-64
2023/07/11 08:16:33;;;;;;;;;;;37.20;46.90;;;;;;5114401;28;19984;-64
2023/07/11 08:18:59;;;;;;;;;;;37.80;48.60;;;;;;5114309;28;19984;-65
2023/07/11 08:21:24;;;;;;;;;;;38.20;46.20;;;;;;5114492;28;20483;-64
2023/07/11 08:23:50;;;;;;;;;;;38.20;42.30;;;;;;5114070;28;20397;-64
2023/07/11 08:26:16;;;;;;;;;;;38.50;42.50;;;;;;5114177;28;20011;-64
2023/07/11 08:28:41;;;;;;;;;;;38.60;44.70;;;;;;5095924;28;19989;-64
2023/07/11 08:31:07;;;;;;;;;;;39.00;43.70;;;;;;5114476;28;19989;-65
2023/07/11 08:33:32;;;;;;;;;;;39.40;41.00;;;;;;5114144;28;19984;-63
2023/07/11 08:35:59;;;;;;;;;;;39.60;43.30;;;;;;5114072;28;20347;-63
2023/07/11 08:38:24;;;;;;;;;;;39.70;39.40;;;;;;5113955;28;20389;-64
2023/07/11 08:40:50;;;;;;;;;;;39.60;40.10;;;;;;5114476;28;20122;-63
2023/07/11 08:43:17;;;;;;;;;;;39.90;40.20;;;;;;5114228;28;19989;-64
2023/07/11 08:46:05;;;;;;;;;;;40.10;40.40;;;;;;5114293;28;20013;-63
2023/07/11 08:48:33;;;;;;;;;;;40.00;38.70;;;;;;5113889;28;20000;-63
2023/07/11 08:51:09;;;;;;;;;;;40.00;40.20;;;;;;5113821;28;19984;-65
2023/07/11 08:53:37;;;;;;;;;;;40.20;41.20;;;;;;5114005;28;19995;-65
2023/07/11 08:56:26;;;;;;;;;;;40.40;36.70;;;;;;5113931;28;20355;-66
2023/07/11 08:58:53;;;;;;;;;;;40.40;38.00;;;;;;5113919;28;20461;-65
2023/07/11 09:01:31;;;;;;;;;;;40.40;38.60;;;;;;5113817;28;20066;-63
2023/07/11 09:03:58;;;;;;;;;;;40.30;38.80;;;;;;5113838;28;20450;-63
2023/07/11 09:06:26;;;;;;;;;;;40.10;38.10;;;;;;5113677;28;19985;-62
2023/07/11 09:08:54;;;;;;;;;;;40.40;37.60;;;;;;5113935;28;19996;-64
2023/07/11 09:11:27;;;;;;;;;;;40.50;38.50;;;;;;5114057;28;19988;-65
2023/07/11 09:13:56;;;;;;;;;;;40.60;38.30;;;;;;5114059;28;19989;-63
2023/07/11 09:16:27;;;;;;;;;;;40.50;38.20;;;;;;5113747;28;19991;-65
2023/07/11 09:18:53;;;;;;;;;;;40.20;38.40;;;;;;5113788;28;19984;-65
2023/07/11 09:21:22;;;;;;;;;;;40.00;43.00;;;;;;5116676;28;20083;-63
2023/07/11 09:23:53;;;;;;;;;;;40.00;37.20;;;;;;5117853;28;20429;-65
2023/07/11 09:26:23;;;;;;;;;;;40.10;38.60;;;;;;5117583;28;19985;-63
2023/07/11 09:28:50;;;;;;;;;;;40.10;37.50;;;;;;5117551;28;20028;-63
2023/07/11 09:31:19;;;;;;;;;;;40.20;39.70;;;;;;5117517;28;19985;-64
2023/07/11 09:33:53;;;;;;;;;;;40.20;38.20;;;;;;5117448;28;19989;-65
2023/07/11 09:36:26;;;;;;;;;;;40.40;38.90;;;;;;5117173;28;19997;-64
2023/07/11 09:38:58;;;;;;;;;;;40.50;35.30;;;;;;5117440;28;19992;-63
2023/07/11 09:41:44;;;;;;;;;;;40.00;35.90;;;;;;5117218;28;20020;-65
2023/07/11 09:44:10;;;;;;;;;;;40.10;37.40;;;;;;5099083;28;20016;-63
2023/07/11 09:46:36;;;;;;;;;;;40.20;38.20;;;;;;5116972;28;20043;-64
2023/07/11 09:49:02;;;;;;;;;;;40.00;36.30;;;;;;5117161;28;20431;-65
2023/07/11 09:51:36;;;;;;;;;;;39.90;37.00;;;;;;5117087;28;19989;-65
2023/07/11 09:54:04;;;;;;;;;;;40.00;36.50;;;;;;5116979;28;20460;-65
2023/07/11 09:56:42;;;;;;;;;;;40.10;37.00;;;;;;5116921;28;20000;-65
2023/07/11 09:59:10;;;;;;;;;;;40.20;38.20;;;;;;5117133;28;20074;-63
2023/07/11 10:01:36;;;;;;;;;;;40.40;37.80;;;;;;5117204;28;20335;-65
2023/07/11 10:04:05;;;;;;;;;;;40.20;38.70;;;;;;5116587;28;20015;-63
2023/07/11 10:06:31;;;;;;;;;;;40.00;36.10;;;;;;5116753;28;20010;-63
2023/07/11 10:08:56;;;;;;;;;;;40.10;36.80;;;;;;5116737;28;20013;-63
2023/07/11 10:11:22;;;;;;;;;;;40.40;37.10;;;;;;5116808;28;20027;-65
2023/07/11 10:13:54;;;;;;;;;;;40.40;37.70;;;;;;5116502;28;20028;-65
2023/07/11 10:16:20;;;;;;;;;;;39.90;39.10;;;;;;5116738;28;20336;-65
2023/07/11 10:18:46;;;;;;;;;;;40.10;41.50;;;;;;5116682;28;19995;-64
2023/07/11 10:21:19;;;;;;;;;;;40.10;38.10;;;;;;5116489;28;19993;-64
2023/07/11 10:23:46;;;;;;;;;;;40.10;37.80;;;;;;5116510;28;19985;-63
2023/07/11 10:26:23;;;;;;;;;;;40.10;39.70;;;;;;5116334;28;20024;-65
2023/07/11 10:29:00;;;;;;;;;;;40.00;40.00;;;;;;5116625;28;19992;-65
2023/07/11 10:31:28;;;;;;;;;;;39.80;41.60;;;;;;5116506;28;20027;-64
2023/07/11 10:33:56;;;;;;;;;;;40.10;41.70;;;;;;5116236;28;20332;-65
2023/07/11 10:36:26;;;;;;;;;;;40.00;44.60;;;;;;5116173;28;19988;-63
2023/07/11 10:38:54;;;;;;;;;;;40.00;42.00;;;;;;5116153;28;20328;-61
2023/07/11 10:41:22;;;;;;;;;;;40.10;38.50;;;;;;5116081;28;20034;-65
2023/07/11 10:43:49;;;;;;;;;;;40.10;38.50;;;;;;5116252;28;19985;-64
2023/07/11 10:46:23;;;;;;;;;;;40.20;39.50;;;;;;5116097;28;20120;-64
2023/07/11 10:48:51;;;;;;;;;;;40.20;39.30;;;;;;5116032;28;19996;-63
2023/07/11 10:51:21;;;;;;;;;;;40.50;42.30;;;;;;5116065;28;20462;-64
2023/07/11 10:53:56;;;;;;;;;;;40.60;39.60;;;;;;5115863;28;20103;-63
2023/07/11 10:56:23;;;;;;;;;;;40.60;37.90;;;;;;5115730;28;19984;-63
2023/07/11 10:58:49;;;;;;;;;;;40.20;37.60;;;;;;5115914;28;19985;-65
2023/07/11 11:01:34;;;;;;;;;;;40.20;40.50;;;;;;5115360;28;19992;-63
2023/07/11 11:04:18;;;;;;;;;;;40.30;38.70;;;;;;5115570;28;20020;-65
2023/07/11 11:06:51;;;;;;;;;;;40.40;37.50;;;;;;5115710;28;20037;-63
2023/07/11 11:09:16;;;;;;;;;;;40.60;35.80;;;;;;5115651;28;20028;-61
2023/07/11 11:12:07;;;;;;;;;;;40.50;35.80;;;;;;5115384;28;20467;-63
2023/07/11 11:14:51;;;;;;;;;;;40.40;34.00;;;;;;5115601;28;20023;-62
2023/07/11 11:17:17;;;;;;;;;;;40.30;33.80;;;;;;5115358;28;20457;-62
2023/07/11 11:20:02;;;;;;;;;;;40.40;38.30;;;;;;5115477;28;19985;-63
2023/07/11 11:22:53;;;;;;;;;;;40.40;35.60;;;;;;5115220;28;20464;-61
2023/07/11 11:25:31;;;;;;;;;;;40.20;35.40;;;;;;5109930;28;20497;-62
2023/07/11 11:27:56;;;;;;;;;;;40.50;38.20;;;;;;5115252;28;20010;-65
2023/07/11 11:30:22;;;;;;;;;;;40.50;40.00;;;;;;5114954;28;19984;-64
2023/07/11 11:33:04;;;;;;;;;;;40.60;37.20;;;;;;5115053;28;19985;-65
2023/07/11 11:35:30;;;;;;;;;;;40.80;35.60;;;;;;5115001;28;19995;-63
2023/07/11 11:38:09;;;;;;;;;;;40.90;38.00;;;;;;5115072;28;19984;-63
2023/07/11 11:40:37;;;;;;;;;;;40.90;39.60;;;;;;5115175;28;19984;-64
2023/07/11 11:43:04;;;;;;;;;;;40.70;35.20;;;;;;5114525;28;20071;-64
2023/07/11 11:45:31;;;;;;;;;;;40.60;35.30;;;;;;5114597;28;20107;-65
2023/07/11 11:47:59;;;;;;;;;;;40.60;36.50;;;;;;5114587;28;20110;-64
2023/07/11 11:50:25;;;;;;;;;;;40.90;36.50;;;;;;5114873;28;19989;-63
2023/07/11 11:53:13;;;;;;;;;;;40.90;37.30;;;;;;5114975;28;19992;-62
2023/07/11 11:55:39;;;;;;;;;;;41.10;39.10;;;;;;5114401;28;20492;-61
2023/07/11 11:58:05;;;;;;;;;;;40.90;36.00;;;;;;5114469;28;20009;-61
2023/07/11 12:00:37;;;;;;;;;;;40.80;36.20;;;;;;5114389;28;19989;-63
2023/07/11 12:03:03;;;;;;;;;;;40.60;33.40;;;;;;5114648;28;20028;-62
2023/07/11 12:05:29;;;;;;;;;;;40.40;37.60;;;;;;5114321;28;20013;-63
2023/07/11 12:08:12;;;;;;;;;;;40.50;35.70;;;;;;5114799;28;20033;-62
2023/07/11 12:10:58;;;;;;;;;;;40.50;35.80;;;;;;5114595;28;19995;-61
2023/07/11 12:13:28;;;;;;;;;;;40.40;36.80;;;;;;5114278;28;20340;-60
2023/07/11 12:15:54;;;;;;;;;;;40.60;38.30;;;;;;5114028;28;20439;-63
2023/07/11 12:18:36;;;;;;;;;;;40.60;37.00;;;;;;5114311;28;19988;-61
2023/07/11 12:21:25;;;;;;;;;;;40.60;34.40;;;;;;5114383;28;20435;-61
2023/07/11 12:24:10;;;;;;;;;;;40.90;33.90;;;;;;5100694;28;20080;-62
2023/07/11 12:26:35;;;;;;;;;;;40.70;34.30;;;;;;5114179;28;20036;-60
2023/07/11 12:29:21;;;;;;;;;;;40.70;35.70;;;;;;5114024;28;20443;-62
2023/07/11 12:32:06;;;;;;;;;;;40.70;34.70;;;;;;5113916;28;20015;-63
2023/07/11 12:34:32;;;;;;;;;;;40.30;39.20;;;;;;5113930;28;20075;-60
2023/07/11 12:37:02;;;;;;;;;;;40.40;36.20;;;;;;5114100;28;20453;-62
2023/07/11 12:39:40;;;;;;;;;;;40.20;36.70;;;;;;5114066;28;20079;-65
2023/07/11 12:42:12;;;;;;;;;;;40.30;39.40;;;;;;5114137;28;20362;-64
2023/07/11 12:44:38;;;;;;;;;;;40.40;37.20;;;;;;5114008;28;20046;-62
2023/07/11 12:47:07;;;;;;;;;;;40.50;36.90;;;;;;5113892;28;20024;-62
2023/07/11 12:49:33;;;;;;;;;;;40.70;35.70;;;;;;5113932;28;19997;-61
2023/07/11 12:52:06;;;;;;;;;;;40.70;34.20;;;;;;5114033;28;20083;-62
2023/07/11 12:54:31;;;;;;;;;;;40.90;34.70;;;;;;5114399;28;20068;-62
2023/07/11 12:56:57;;;;;;;;;;;40.90;38.00;;;;;;5118047;28;20032;-63
2023/07/11 12:59:27;;;;;;;;;;;40.70;36.00;;;;;;5118148;28;19996;-60
2023/07/11 13:01:54;;;;;;;;;;;40.60;36.10;;;;;;5118329;28;19988;-62
2023/07/11 13:04:30;;;;;;;;;;;40.70;37.70;;;;;;5117874;28;20031;-63
2023/07/11 13:06:56;;;;;;;;;;;40.90;37.60;;;;;;5117984;28;20328;-63
2023/07/11 13:09:22;;;;;;;;;;;40.80;34.40;;;;;;5117898;28;19991;-63
2023/07/11 13:11:48;;;;;;;;;;;40.90;35.80;;;;;;5117632;28;20331;-60
2023/07/11 13:14:14;;;;;;;;;;;40.90;35.80;;;;;;5118042;28;19995;-61
2023/07/11 13:16:40;;;;;;;;;;;40.80;35.50;;;;;;5117715;28;20102;-64
2023/07/11 13:19:13;;;;;;;;;;;40.80;34.40;;;;;;5117906;28;20335;-61
2023/07/11 13:21:38;;;;;;;;;;;40.60;35.60;;;;;;5117787;28;20083;-61
2023/07/11 13:24:04;;;;;;;;;;;40.60;37.70;;;;;;5117639;28;20095;-63
2023/07/11 13:26:29;;;;;;;;;;;40.80;36.10;;;;;;5117466;28;19988;-62
2023/07/11 13:29:01;;;;;;;;;;;40.90;34.00;;;;;;5117664;28;19989;-62
2023/07/11 13:31:29;;;;;;;;;;;41.00;35.10;;;;;;5117527;28;19985;-61
2023/07/11 13:34:08;;;;;;;;;;;41.00;37.90;;;;;;5117299;28;19996;-63
2023/07/11 13:36:34;;;;;;;;;;;40.90;34.30;;;;;;5117504;28;19985;-63
2023/07/11 13:39:05;;;;;;;;;;;40.90;35.80;;;;;;5117267;28;19996;-62
2023/07/11 13:41:39;;;;;;;;;;;41.00;36.70;;;;;;5117341;28;19996;-61
2023/07/11 13:44:15;;;;;;;;;;;41.00;39.40;;;;;;5117397;28;20038;-61
2023/07/11 13:46:41;;;;;;;;;;;41.00;36.10;;;;;;5117205;28;20406;-61
2023/07/11 13:49:15;;;;;;;;;;;40.80;39.40;;;;;;5117333;28;19989;-62
2023/07/11 13:51:41;;;;;;;;;;;40.80;37.60;;;;;;5117303;28;19988;-63
2023/07/11 13:54:12;;;;;;;;;;;40.90;38.20;;;;;;5117019;28;20324;-61
2023/07/11 13:56:37;;;;;;;;;;;40.90;37.50;;;;;;5116693;28;20004;-62
2023/07/11 13:59:03;;;;;;;;;;;40.60;35.20;;;;;;5116909;28;19992;-61
2023/07/11 14:01:29;;;;;;;;;;;40.40;37.60;;;;;;5117132;28;20029;-62
2023/07/11 14:03:55;;;;;;;;;;;40.40;40.40;;;;;;5116885;28;19988;-63
2023/07/11 14:06:20;;;;;;;;;;;40.30;37.70;;;;;;5116293;28;20000;-61
2023/07/11 14:08:46;;;;;;;;;;;40.40;35.60;;;;;;5116701;28;20034;-61
2023/07/11 14:11:28;;;;;;;;;;;40.60;37.00;;;;;;5116790;28;20053;-63
2023/07/11 14:13:54;;;;;;;;;;;40.70;39.10;;;;;;5116636;28;19985;-63
2023/07/11 14:16:20;;;;;;;;;;;40.90;39.20;;;;;;5116667;28;19984;-63
2023/07/11 14:18:45;;;;;;;;;;;41.00;37.50;;;;;;5116677;28;20046;-61